Time;durP1;ratioP1;P1;durP2;ratioP2;P2;SDS_P1;SDS_P2;PMS_P1;PMS_P2;Temp;Humidity;BMP_temperature;BMP_pressure;BME280_temperature;BME280_humidity;BME280_pressure;Samples;Min_cycle;Max_cycle;Signal;HPM_P1;HPM_P2
2022/10/19 00:02:05;;;;;;;600.10;559.28;;;14.30;99.90;;;14.50;100.00;101643.34;5077059;28;20197;-81
2022/10/19 00:04:53;;;;;;;592.40;552.28;;;14.30;99.90;;;14.52;100.00;101642.47;5078203;28;20224;-81
2022/10/19 00:07:42;;;;;;;601.35;560.10;;;14.40;99.90;;;14.58;100.00;101644.31;5077526;28;20202;-81
2022/10/19 00:10:31;;;;;;;586.63;546.05;;;14.40;99.90;;;14.59;100.00;101643.44;5078031;28;20202;-81
2022/10/19 00:13:19;;;;;;;597.88;557.35;;;14.40;99.90;;;14.63;100.00;101643.50;5078919;28;20670;-81
2022/10/19 00:16:13;;;;;;;597.65;556.60;;;14.40;99.90;;;14.63;100.00;101637.28;5080052;28;20190;-81
2022/10/19 00:19:06;;;;;;;593.13;552.67;;;14.50;99.90;;;14.65;100.00;101635.53;5065711;28;20230;-81
2022/10/19 00:21:55;;;;;;;589.15;549.05;;;14.50;99.90;;;14.66;100.00;101638.22;5082763;28;20209;-81
2022/10/19 00:24:43;;;;;;;598.70;558.05;;;14.50;99.90;;;14.70;100.00;101631.16;5083351;28;20206;-81
2022/10/19 00:27:32;;;;;;;604.85;562.03;;;14.60;99.90;;;14.70;100.00;101629.38;5063059;28;20217;-81
2022/10/19 00:30:20;;;;;;;588.45;547.35;;;14.60;99.90;;;14.73;100.00;101626.75;5063406;28;20209;-81
2022/10/19 00:33:08;;;;;;;591.03;548.78;;;14.60;99.90;;;14.78;100.00;101626.81;5061922;28;20614;-81
2022/10/19 00:35:56;;;;;;;593.40;548.22;;;;;;;14.76;100.00;101620.56;5076675;28;20220;-81
2022/10/19 00:38:45;;;;;;;592.22;541.88;;;;;;;14.80;100.00;101624.16;5076851;28;20221;-81
2022/10/19 00:41:35;;;;;;;600.50;554.40;;;14.70;99.90;;;14.83;100.00;101629.53;5076636;28;20213;-81
2022/10/19 00:44:29;;;;;;;594.63;553.88;;;14.70;99.90;;;14.83;100.00;101633.06;5063403;28;20221;-80
2022/10/19 00:47:22;;;;;;;598.78;557.63;;;14.70;99.90;;;14.80;100.00;101626.81;5077760;28;20198;-80
2022/10/19 00:50:13;;;;;;;582.58;543.85;;;14.70;99.90;;;14.82;100.00;101628.63;5079817;28;20205;-80
2022/10/19 00:53:01;;;;;;;593.95;554.40;;;14.70;99.90;;;14.81;100.00;101628.59;5079180;28;20206;-80
2022/10/19 00:55:49;;;;;;;592.13;552.65;;;14.70;99.90;;;14.82;100.00;101630.41;5064322;28;20224;-81
2022/10/19 00:58:40;;;;;;;586.17;547.70;;;14.70;99.90;;;14.80;100.00;101622.38;5064670;28;20217;-80
2022/10/19 01:01:28;;;;;;;591.63;553.67;;;14.70;99.90;;;14.79;100.00;101614.38;5078125;28;20198;-81
2022/10/19 01:04:20;;;;;;;587.90;550.38;;;14.70;99.90;;;14.77;100.00;101616.13;5064417;28;20209;-80
2022/10/19 01:07:08;;;;;;;591.75;553.13;;;14.60;99.90;;;14.79;100.00;101609.06;5064951;28;20228;-81
2022/10/19 01:09:57;;;;;;;591.58;551.95;;;14.60;99.90;;;14.79;100.00;101609.06;5062806;28;20209;-79
2022/10/19 01:13:15;;;;;;;593.35;553.35;;;15.10;99.90;;;14.76;100.00;101607.25;5062775;28;20202;-79
2022/10/19 01:16:21;;;;;;;580.40;541.50;;;14.60;99.90;;;14.74;100.00;101595.69;5075725;28;20198;-79
2022/10/19 01:19:52;;;;;;;582.00;542.10;;;14.60;99.90;;;14.73;100.00;101599.22;5074712;28;20229;-79
2022/10/19 01:23:24;;;;;;;575.25;535.42;;;14.60;99.90;;;14.74;100.00;101601.03;5060104;28;20213;-80
2022/10/19 01:27:10;;;;;;;582.22;540.65;;;14.60;99.90;;;14.75;100.00;101589.50;5070837;28;20201;-80
2022/10/19 01:30:06;;;;;;;574.13;533.85;;;14.60;99.90;;;14.71;100.00;101593.91;5057672;28;20213;-79
2022/10/19 01:32:58;;;;;;;583.63;542.63;;;14.60;99.90;;;14.68;100.00;101582.31;5060579;28;20224;-79
2022/10/19 01:36:17;;;;;;;586.25;545.15;;;14.50;99.90;;;14.67;100.00;101585.84;5061327;28;20588;-78
2022/10/19 01:40:04;;;;;;;582.85;541.83;;;14.50;99.90;;;14.65;100.00;101576.97;5048720;28;20234;-80
2022/10/19 01:43:21;;;;;;;577.92;536.83;;;14.50;99.90;;;14.59;100.00;101568.91;5034527;28;20322;-80
2022/10/19 01:46:33;;;;;;;574.45;533.00;;;14.50;99.90;;;14.56;100.00;101566.22;4989513;28;20207;-81
2022/10/19 01:49:31;;;;;;;582.85;540.78;;;14.50;99.90;;;14.59;100.00;101560.91;5071805;28;20229;-81
2022/10/19 01:52:21;;;;;;;581.92;539.00;;;14.40;99.90;;;14.50;100.00;101550.19;5058102;28;20203;-81
2022/10/19 01:55:13;;;;;;;583.03;538.92;;;14.40;99.90;;;14.53;100.00;101548.44;5058346;28;20194;-81
2022/10/19 01:58:06;;;;;;;578.85;534.70;;;14.40;99.90;;;14.50;100.00;101542.19;5057547;28;20233;-81
2022/10/19 02:01:01;;;;;;;583.13;539.55;;;14.30;99.90;;;14.48;100.00;101546.59;5055196;28;20202;-81
2022/10/19 02:03:51;;;;;;;573.67;530.60;;;14.30;99.90;;;14.45;100.00;101541.25;5059061;28;20658;-80
2022/10/19 02:06:40;;;;;;;579.25;534.97;;;14.30;99.90;;;14.41;100.00;101537.63;5074687;28;20209;-80
2022/10/19 02:09:29;;;;;;;583.35;538.75;;;14.30;99.90;;;14.41;100.00;101542.94;5059331;28;20222;-81
2022/10/19 02:12:19;;;;;;;575.08;532.40;;;14.30;99.90;;;14.42;100.00;101544.78;5059225;28;20190;-80
2022/10/19 02:15:17;;;;;;;579.33;536.10;;;14.30;99.90;;;14.39;100.00;101539.38;5061115;28;20198;-80
2022/10/19 02:18:07;;;;;;;576.75;534.20;;;14.20;99.90;;;14.35;100.00;101538.44;5059570;28;20670;-82
2022/10/19 02:20:56;;;;;;;575.83;533.63;;;;;;;14.38;100.00;101542.91;5067581;28;20198;-80
2022/10/19 02:23:44;;;;;;;578.03;535.22;;;14.20;99.90;;;14.31;100.00;101533.06;5044781;28;20205;-80
2022/10/19 02:26:34;;;;;;;577.70;534.80;;;14.20;99.90;;;14.27;100.00;101531.22;5075312;28;20582;-81
2022/10/19 02:29:22;;;;;;;579.78;536.58;;;14.10;99.90;;;14.24;100.00;101525.88;5062275;28;20229;-80
2022/10/19 02:32:11;;;;;;;575.35;532.58;;;14.10;99.90;;;14.16;100.00;101515.13;5061833;28;20210;-81
2022/10/19 02:34:59;;;;;;;576.85;534.28;;;14.10;99.90;;;14.17;100.00;101526.66;5064803;28;20202;-81
2022/10/19 02:37:47;;;;;;;575.55;531.75;;;14.00;99.90;;;14.10;100.00;101526.59;5056892;28;20213;-81
2022/10/19 02:40:42;;;;;;;575.72;532.78;;;13.90;99.90;;;13.98;100.00;101512.25;5056957;28;20233;-81
2022/10/19 02:43:34;;;;;;;568.05;526.17;;;13.90;99.90;;;14.04;100.00;101533.63;5057049;28;20201;-81
2022/10/19 02:46:34;;;;;;;563.05;522.60;;;13.90;99.90;;;14.03;100.00;101531.81;5056813;28;20198;-80
2022/10/19 02:49:22;;;;;;;563.65;522.08;;;13.90;99.90;;;13.96;100.00;101528.19;5056428;28;20226;-80
2022/10/19 02:52:12;;;;;;;566.38;527.28;;;13.80;99.90;;;13.92;100.00;101526.38;5057252;28;20209;-81
2022/10/19 02:55:00;;;;;;;557.28;517.90;;;13.70;99.90;;;13.81;100.00;101530.66;5072589;28;20205;-80
2022/10/19 02:57:48;;;;;;;565.70;525.42;;;13.60;99.90;;;13.66;100.00;101526.03;5069642;28;20224;-79
2022/10/19 03:00:36;;;;;;;560.45;520.15;;;13.50;99.90;;;13.59;100.00;101531.25;5070064;28;20218;-79
2022/10/19 03:03:24;;;;;;;553.30;513.88;;;13.40;99.90;;;13.54;100.00;101544.47;5069437;28;20202;-79
2022/10/19 03:06:12;;;;;;;551.05;510.45;;;13.40;99.90;;;13.49;100.00;101546.16;5072023;28;20198;-79
2022/10/19 03:09:00;;;;;;;544.70;505.40;;;13.40;99.90;;;13.47;100.00;101554.97;5058343;28;20214;-78
2022/10/19 03:11:49;;;;;;;549.50;506.40;;;;;;;13.47;100.00;101553.22;5073584;28;20205;-79
2022/10/19 03:14:37;;;;;;;538.95;493.48;;;;;;;13.47;100.00;101562.97;5074442;28;20201;-79
2022/10/19 03:17:25;;;;;;;544.10;497.40;;;13.40;99.90;;;13.54;100.00;101587.00;5074367;28;20198;-79
2022/10/19 03:20:13;;;;;;;530.13;489.73;;;13.40;99.90;;;13.52;100.00;101588.72;5057815;28;20235;-79
2022/10/19 03:23:02;;;;;;;521.25;486.15;;;13.30;99.90;;;13.44;100.00;101593.03;5078601;28;20634;-79
2022/10/19 03:25:50;;;;;;;522.45;487.85;;;13.40;99.90;;;13.49;100.00;101604.63;5076903;28;20222;-79
2022/10/19 03:28:38;;;;;;;523.17;489.70;;;13.30;99.90;;;13.56;100.00;101602.97;5078437;28;20209;-79
2022/10/19 03:31:26;;;;;;;524.53;491.90;;;13.40;99.90;;;13.55;100.00;101617.13;5077735;28;20194;-79
2022/10/19 03:34:14;;;;;;;526.92;493.88;;;13.40;99.90;;;13.52;100.00;101617.06;5075564;28;20194;-79
2022/10/19 03:37:02;;;;;;;527.95;494.25;;;13.40;99.90;;;13.52;100.00;101617.97;5077411;28;20202;-79
2022/10/19 03:39:50;;;;;;;524.53;490.90;;;13.40;99.90;;;13.54;100.00;101624.19;5058933;28;20242;-80
2022/10/19 03:42:38;;;;;;;526.55;490.75;;;13.40;99.90;;;13.52;100.00;101622.38;5044292;28;20205;-81
2022/10/19 03:45:26;;;;;;;518.78;482.63;;;13.30;99.90;;;13.54;100.00;101632.16;5045481;28;20203;-81
2022/10/19 03:48:15;;;;;;;536.78;498.75;;;13.40;99.90;;;13.60;100.00;101642.91;5061529;28;20225;-80
2022/10/19 03:51:14;;;;;;;531.45;491.58;;;13.50;99.90;;;13.63;100.00;101650.94;5055116;28;20207;-81
2022/10/19 03:54:07;;;;;;;528.58;490.25;;;14.20;99.90;;;13.64;100.00;101650.06;5058185;28;20194;-81
2022/10/19 03:56:55;;;;;;;526.53;487.63;;;13.50;99.90;;;13.65;100.00;101654.50;5055595;28;20207;-79
2022/10/19 03:59:43;;;;;;;537.25;498.77;;;13.60;99.90;;;13.67;100.00;101657.19;5052085;28;20657;-79
2022/10/19 04:02:31;;;;;;;538.47;499.75;;;13.60;99.90;;;13.67;100.00;101657.19;5053034;28;20566;-79
2022/10/19 04:05:19;;;;;;;531.05;494.25;;;13.60;99.90;;;13.72;100.00;101667.03;5051317;28;20194;-79
2022/10/19 04:08:07;;;;;;;536.70;498.40;;;13.40;99.90;;;13.68;100.00;101674.94;5052984;28;20211;-79
2022/10/19 04:11:07;;;;;;;530.40;489.92;;;13.50;99.90;;;13.71;100.00;101677.63;5052726;28;20209;-79
2022/10/19 04:13:57;;;;;;;539.15;496.00;;;13.50;99.90;;;13.65;100.00;101678.44;5053661;28;20195;-79
2022/10/19 04:16:46;;;;;;;535.00;488.90;;;;;;;13.70;100.00;101687.38;5052630;28;20195;-79
2022/10/19 04:19:34;;;;;;;537.80;492.83;;;;;;;13.72;100.00;101692.72;5036977;28;20305;-77
2022/10/19 04:22:22;;;;;;;533.80;487.50;;;;;;;13.70;100.00;101681.16;5053789;28;20198;-77
2022/10/19 04:25:11;;;;;;;537.38;495.42;;;13.60;99.90;;;13.75;100.00;101690.09;5052969;28;20197;-78
2022/10/19 04:27:59;;;;;;;535.30;496.00;;;13.60;99.90;;;13.73;100.00;101695.41;5052772;28;20231;-77
2022/10/19 04:30:47;;;;;;;533.90;494.17;;;13.60;99.90;;;13.75;100.00;101696.31;5052854;28;20202;-77
2022/10/19 04:33:35;;;;;;;538.33;498.77;;;13.60;99.90;;;13.72;100.00;101692.72;5052509;28;20202;-77
2022/10/19 04:36:23;;;;;;;530.17;490.67;;;13.60;99.90;;;13.74;100.00;101701.59;5052869;28;20203;-77
2022/10/19 04:39:11;;;;;;;527.15;487.02;;;13.60;99.90;;;13.71;100.00;101701.56;5037089;28;20230;-77
2022/10/19 04:41:59;;;;;;;531.78;490.98;;;13.60;99.90;;;13.71;100.00;101698.91;5052949;28;20199;-77
2022/10/19 04:44:48;;;;;;;533.47;487.45;;;;;;;13.71;100.00;101698.91;5052561;28;20199;-77
2022/10/19 04:47:37;;;;;;;535.17;489.63;;;;;;;13.68;100.00;101699.75;5051126;28;20207;-78
2022/10/19 04:50:25;;;;;;;529.38;489.13;;;13.60;99.90;;;13.69;100.00;101695.31;5051253;28;20677;-77
2022/10/19 04:53:16;;;;;;;525.22;490.75;;;13.60;99.90;;;13.69;100.00;101692.66;5038251;28;20199;-77
2022/10/19 04:56:07;;;;;;;528.35;493.23;;;13.60;99.90;;;13.67;100.00;101686.44;5053348;28;20199;-77
2022/10/19 04:58:57;;;;;;;527.38;491.35;;;13.50;99.90;;;13.61;100.00;101689.88;5051118;28;20225;-77
2022/10/19 05:01:45;;;;;;;527.97;490.80;;;13.50;99.90;;;13.62;100.00;101689.00;5037486;28;20230;-77
2022/10/19 05:04:34;;;;;;;534.78;496.13;;;;;;;13.61;100.00;101687.22;5039388;28;20651;-77
2022/10/19 05:07:23;;;;;;;528.42;489.67;;;;;;;13.63;100.00;101685.47;5051873;28;20216;-77
2022/10/19 05:10:11;;;;;;;523.60;483.90;;;;;;;13.59;100.00;101682.75;5055040;28;20195;-77
2022/10/19 05:13:01;;;;;;;530.45;489.52;;;;;;;13.56;100.00;101690.66;5051446;28;20195;-77
2022/10/19 05:16:00;;;;;;;533.35;492.90;;;13.50;99.90;;;13.64;100.00;101695.25;5051407;28;20202;-77
2022/10/19 05:18:51;;;;;;;529.13;488.38;;;13.50;99.90;;;13.61;100.00;101702.28;5052107;28;20211;-77
2022/10/19 05:21:39;;;;;;;530.10;486.98;;;13.50;99.90;;;13.63;100.00;101697.88;5059356;28;20237;-77
2022/10/19 05:24:28;;;;;;;530.90;484.90;;;;;;;13.63;100.00;101692.56;5078630;28;20198;-77
2022/10/19 05:27:16;;;;;;;527.75;487.45;;;;;;;13.61;100.00;101691.63;5040392;28;20201;-77
2022/10/19 05:30:07;;;;;;;529.97;489.80;;;13.50;99.90;;;13.59;100.00;101691.63;5081505;28;20217;-77
2022/10/19 05:32:55;;;;;;;532.35;493.05;;;13.50;99.90;;;13.54;100.00;101687.09;5052971;28;20203;-76
2022/10/19 05:35:43;;;;;;;523.65;485.90;;;;;;;13.54;100.00;101700.38;5051962;28;20213;-75
2022/10/19 05:38:31;;;;;;;532.20;493.42;;;13.50;99.90;;;13.59;100.00;101699.59;5050849;28;20219;-77
2022/10/19 05:41:21;;;;;;;534.35;494.55;;;13.50;99.90;;;13.61;100.00;101703.16;5050915;28;20245;-77
2022/10/19 05:44:15;;;;;;;529.08;490.08;;;13.50;99.90;;;13.63;100.00;101706.75;5051457;28;20199;-77
2022/10/19 05:47:03;;;;;;;533.90;492.77;;;13.50;99.90;;;13.59;100.00;101704.91;5051368;28;20202;-77
2022/10/19 05:49:51;;;;;;;529.63;490.02;;;13.50;99.90;;;13.60;100.00;101706.69;5051509;28;20305;-77
2022/10/19 05:52:39;;;;;;;527.33;486.13;;;;;;;13.63;100.00;101711.16;5050998;28;20195;-77
2022/10/19 05:55:28;;;;;;;529.80;487.42;;;;;;;13.61;100.00;101710.25;5051003;28;20202;-78
2022/10/19 05:58:16;;;;;;;532.47;489.13;;;;;;;13.52;100.00;101708.31;5050347;28;20249;-78
2022/10/19 06:01:04;;;;;;;535.90;489.55;;;13.50;99.90;;;13.53;100.00;101711.88;5050774;28;20241;-78
2022/10/19 06:03:55;;;;;;;536.35;491.10;;;13.50;99.90;;;13.52;100.00;101716.31;5050736;28;20199;-79
2022/10/19 06:06:44;;;;;;;527.05;485.00;;;;;;;13.51;100.00;101721.59;5051127;28;20207;-79
2022/10/19 06:09:35;;;;;;;534.10;496.45;;;13.40;99.90;;;13.48;100.00;101719.78;5063894;28;20603;-79
2022/10/19 06:12:23;;;;;;;518.95;480.83;;;13.40;99.90;;;13.52;100.00;101715.41;5070756;28;20208;-79
2022/10/19 06:15:12;;;;;;;529.85;493.75;;;13.40;99.90;;;13.52;100.00;101721.63;5069934;28;20198;-79
2022/10/19 06:18:02;;;;;;;526.28;490.50;;;13.40;99.90;;;13.49;100.00;101720.66;5054230;28;20221;-79
2022/10/19 06:20:51;;;;;;;525.40;489.63;;;13.30;99.90;;;13.52;100.00;101721.63;5071389;28;20233;-79
2022/10/19 06:23:41;;;;;;;518.85;483.55;;;13.40;99.90;;;13.51;100.00;101726.91;5066552;28;20198;-78
2022/10/19 06:26:31;;;;;;;523.30;486.88;;;13.40;99.90;;;13.55;100.00;101729.66;5068124;28;20197;-79
2022/10/19 06:29:19;;;;;;;520.75;483.73;;;13.40;99.90;;;13.57;100.00;101727.91;5068351;28;20241;-78
2022/10/19 06:32:07;;;;;;;523.85;485.58;;;13.40;99.90;;;13.54;100.00;101727.84;5068521;28;20201;-79
2022/10/19 06:34:55;;;;;;;528.35;489.10;;;13.50;99.90;;;13.57;100.00;101733.22;5070301;28;20201;-79
2022/10/19 06:37:44;;;;;;;536.63;493.80;;;;;;;13.59;100.00;101750.09;5067307;28;20676;-78
2022/10/19 06:40:33;;;;;;;531.10;486.67;;;;;;;13.58;100.00;101750.97;5068968;28;20237;-78
2022/10/19 06:43:21;;;;;;;533.65;491.98;;;13.50;99.90;;;13.56;100.00;101754.47;5069104;28;20197;-78
2022/10/19 06:46:19;;;;;;;530.90;492.27;;;13.40;99.90;;;13.50;100.00;101757.91;5069074;28;20198;-78
2022/10/19 06:49:10;;;;;;;525.53;488.27;;;13.40;99.90;;;13.53;100.00;101754.41;5054947;28;20245;-79
2022/10/19 06:51:59;;;;;;;531.80;491.20;;;;;;;13.61;100.00;101752.78;5055622;28;20209;-78
2022/10/19 06:54:47;;;;;;;529.42;488.85;;;13.50;99.90;;;13.62;100.00;101763.44;5069362;28;20197;-78
2022/10/19 06:57:35;;;;;;;551.35;504.70;;;13.40;99.90;;;13.55;100.00;101758.88;5052776;28;20209;-79
2022/10/19 07:00:23;;;;;;;514.58;482.88;;;13.40;99.90;;;13.60;100.00;101761.63;5068735;28;20198;-78
2022/10/19 07:03:11;;;;;;;521.90;490.38;;;13.50;99.90;;;13.68;100.00;101771.53;5055270;28;20198;-79
2022/10/19 07:06:04;;;;;;;525.55;492.50;;;13.50;99.90;;;13.60;100.00;101762.53;5070416;28;20198;-78
2022/10/19 07:08:52;;;;;;;534.80;498.35;;;;;;;13.53;100.00;101767.69;5068798;28;20701;-78
2022/10/19 07:11:41;;;;;;;540.25;498.92;;;;;;;13.53;100.00;101765.94;5070800;28;20198;-79
2022/10/19 07:14:37;;;;;;;536.05;490.48;;;;;;;13.61;100.00;101785.56;5070685;28;20205;-78
2022/10/19 07:17:25;;;;;;;538.20;490.70;;;;;;;13.52;100.00;101781.84;5068699;28;20206;-79
2022/10/19 07:20:14;;;;;;;528.97;482.65;;;;;;;13.49;100.00;101781.78;5069414;28;20225;-79
2022/10/19 07:23:02;;;;;;;533.78;487.33;;;;;;;13.52;100.00;101792.47;5070248;28;20213;-80
2022/10/19 07:25:52;;;;;;;539.33;493.38;;;;;;;13.45;100.00;101776.44;5070739;28;20194;-78
2022/10/19 07:28:43;;;;;;;533.63;488.50;;;13.30;99.90;;;13.36;100.00;101768.28;5069898;28;20218;-78
2022/10/19 07:31:32;;;;;;;534.90;489.73;;;;;;;13.45;100.00;101771.09;5070419;28;20194;-77
2022/10/19 07:34:20;;;;;;;529.58;485.17;;;;;;;13.42;100.00;101764.84;5071145;28;20202;-78
2022/10/19 07:37:13;;;;;;;538.55;493.67;;;;;;;13.39;100.00;101767.44;5068325;28;20198;-76
2022/10/19 07:40:02;;;;;;;532.78;489.15;;;13.30;99.90;;;13.51;100.00;101769.44;5066797;28;20198;-77
2022/10/19 07:42:51;;;;;;;539.47;495.98;;;;;;;13.62;100.00;101776.72;5066706;28;20225;-77
2022/10/19 07:45:39;;;;;;;537.28;492.33;;;;;;;13.54;100.00;101770.38;5064743;28;20206;-78
2022/10/19 07:48:28;;;;;;;526.90;482.08;;;13.50;99.90;;;13.64;100.00;101772.34;5055413;28;20226;-78
2022/10/19 07:51:18;;;;;;;527.63;483.45;;;13.50;99.90;;;13.64;100.00;101774.09;5069527;28;20213;-78
2022/10/19 07:54:06;;;;;;;531.95;488.80;;;;;;;13.71;100.00;101781.31;5072515;28;20213;-79
2022/10/19 07:56:54;;;;;;;537.28;492.77;;;13.50;99.90;;;13.59;100.00;101767.81;5073499;28;20206;-79
2022/10/19 07:59:43;;;;;;;530.13;486.17;;;;;;;13.57;100.00;101764.22;5071925;28;20230;-79
2022/10/19 08:02:31;;;;;;;531.47;487.98;;;;;;;13.57;100.00;101762.47;5072753;28;20612;-79
2022/10/19 08:05:39;;;;;;;530.20;487.23;;;13.50;99.90;;;13.63;100.00;101767.88;5073543;28;20209;-79
2022/10/19 08:08:28;;;;;;;534.17;491.27;;;;;;;13.72;100.00;101769.81;5071715;28;20225;-79
2022/10/19 08:11:21;;;;;;;547.88;506.05;;;13.50;99.90;;;13.64;100.00;101760.81;5074280;28;20642;-79
2022/10/19 08:14:10;;;;;;;537.97;498.58;;;13.60;99.90;;;13.75;100.00;101769.88;5071885;28;20217;-78
2022/10/19 08:16:58;;;;;;;538.97;498.98;;;13.60;99.90;;;13.75;100.00;101760.13;5071775;28;20201;-79
2022/10/19 08:19:47;;;;;;;532.13;495.08;;;13.60;99.90;;;13.81;100.00;101754.00;5071457;28;20689;-78
2022/10/19 08:22:35;;;;;;;535.17;497.15;;;13.60;99.90;;;13.81;100.00;101746.03;5073744;28;20226;-79
2022/10/19 08:25:24;;;;;;;543.60;505.60;;;13.60;99.90;;;13.68;100.00;101752.03;5069193;28;20194;-78
2022/10/19 08:28:12;;;;;;;548.88;512.00;;;;;;;13.72;100.00;101746.78;5071174;28;20226;-78
2022/10/19 08:31:16;;;;;;;544.90;508.13;;;13.60;99.90;;;13.78;100.00;101749.53;5069174;28;20194;-78
2022/10/19 08:34:05;;;;;;;540.97;503.77;;;13.60;99.90;;;13.85;100.00;101749.66;5070732;28;20198;-79
2022/10/19 08:36:54;;;;;;;548.47;508.80;;;;;;;13.95;100.00;101748.94;5072350;28;20213;-79
2022/10/19 08:39:42;;;;;;;545.20;506.00;;;13.70;99.90;;;13.81;100.00;101738.06;5069679;28;20210;-79
2022/10/19 08:43:04;;;;;;;545.20;506.33;;;13.70;99.90;;;13.94;100.00;101742.72;5072288;28;20244;-79
2022/10/19 08:46:34;;;;;;;542.28;504.08;;;13.80;99.90;;;14.06;100.00;101748.22;5070289;28;20205;-79
2022/10/19 08:49:26;;;;;;;535.50;497.48;;;13.80;99.90;;;14.01;100.00;101741.03;5055081;28;20222;-79
2022/10/19 08:52:20;;;;;;;551.80;514.72;;;13.80;99.90;;;14.00;100.00;101741.91;5053314;28;20214;-79
2022/10/19 08:55:23;;;;;;;542.10;506.45;;;14.00;99.90;;;13.94;100.00;101723.19;5052152;28;20210;-79
2022/10/19 08:58:42;;;;;;;550.85;514.00;;;13.80;99.90;;;13.97;100.00;101723.25;5056215;28;20693;-80
2022/10/19 09:01:52;;;;;;;545.95;510.15;;;13.80;99.90;;;13.87;100.00;101721.31;5057308;28;20222;-79
2022/10/19 09:04:48;;;;;;;545.30;510.08;;;13.80;99.90;;;14.04;100.00;101727.78;5057573;28;20210;-79
2022/10/19 09:07:44;;;;;;;535.50;502.92;;;13.80;99.90;;;14.01;100.00;101725.97;5058002;28;20205;-79
2022/10/19 09:10:40;;;;;;;532.13;501.83;;;13.90;99.90;;;13.98;100.00;101719.72;5059600;28;20194;-78
2022/10/19 09:13:43;;;;;;;545.65;513.92;;;13.80;99.90;;;14.16;100.00;101727.97;5057956;28;20646;-79
2022/10/19 09:17:00;;;;;;;539.20;507.98;;;14.00;99.90;;;14.16;100.00;101714.66;5073427;28;20225;-78
2022/10/19 09:19:48;;;;;;;547.58;515.17;;;14.00;99.90;;;14.19;100.00;101719.16;5072634;28;20243;-78
2022/10/19 09:22:36;;;;;;;560.00;527.00;;;14.00;99.90;;;14.16;100.00;101709.34;5071824;28;20217;-78
2022/10/19 09:25:25;;;;;;;558.20;525.70;;;;;;;14.25;100.00;101714.81;5056413;28;20197;-78
2022/10/19 09:28:39;;;;;;;560.70;528.05;;;14.10;99.90;;;14.17;100.00;101699.59;5057831;28;20237;-79
2022/10/19 09:31:33;;;;;;;558.90;526.53;;;14.10;99.90;;;14.20;100.00;101702.31;5072376;28;20193;-79
2022/10/19 09:34:48;;;;;;;556.25;524.45;;;14.00;99.90;;;14.25;100.00;101700.59;5071419;28;20209;-79
2022/10/19 09:37:45;;;;;;;560.17;526.17;;;14.00;99.90;;;14.24;100.00;101699.72;5055102;28;20245;-78
2022/10/19 09:40:37;;;;;;;555.47;523.95;;;14.10;99.90;;;14.38;100.00;101708.81;5062362;28;20224;-78
2022/10/19 09:43:27;;;;;;;562.95;531.20;;;14.20;99.90;;;14.46;100.00;101708.06;5062476;28;20553;-79
2022/10/19 09:46:33;;;;;;;575.15;541.75;;;14.30;99.90;;;14.48;100.00;101701.88;5056866;28;20202;-79
2022/10/19 09:49:47;;;;;;;569.63;537.60;;;14.30;99.90;;;14.58;100.00;101705.56;5071619;28;20244;-78
2022/10/19 09:52:38;;;;;;;571.25;539.05;;;14.40;99.90;;;14.61;100.00;101698.50;5072116;28;20665;-79
2022/10/19 09:55:38;;;;;;;580.63;547.95;;;14.40;99.90;;;14.67;100.00;101703.00;5057536;28;20210;-79
2022/10/19 09:58:29;;;;;;;571.78;539.85;;;14.50;99.90;;;14.63;100.00;101701.19;5064984;28;20585;-79
2022/10/19 10:01:42;;;;;;;585.33;552.92;;;14.50;99.90;;;14.54;100.00;101693.97;5056373;28;20564;-77
2022/10/19 10:04:31;;;;;;;588.13;555.75;;;14.50;99.90;;;14.62;100.00;101697.63;5070714;28;20202;-77
2022/10/19 10:07:19;;;;;;;577.40;546.28;;;14.50;99.90;;;14.67;100.00;101701.25;5055342;28;20202;-77
2022/10/19 10:10:27;;;;;;;571.22;540.78;;;14.60;99.90;;;14.66;100.00;101693.22;5056261;28;20210;-77
2022/10/19 10:13:22;;;;;;;587.83;556.45;;;14.60;99.90;;;14.89;100.00;101701.50;5055999;28;20205;-78
2022/10/19 10:16:15;;;;;;;586.85;554.88;;;14.60;99.90;;;14.90;100.00;101688.19;5041908;28;20654;-78
2022/10/19 10:19:07;;;;;;;599.83;567.35;;;14.70;99.90;;;15.01;100.00;101699.88;5054586;28;20225;-77
2022/10/19 10:21:57;;;;;;;606.22;572.42;;;14.80;99.90;;;15.15;100.00;101693.78;5056800;28;20211;-77
2022/10/19 10:24:53;;;;;;;612.50;579.42;;;14.90;99.90;;;15.05;100.00;101679.47;5071489;28;20197;-78
2022/10/19 10:27:41;;;;;;;586.17;555.42;;;15.00;99.90;;;15.11;100.00;101676.88;5071062;28;20202;-77
2022/10/19 10:30:34;;;;;;;596.50;564.65;;;15.00;99.90;;;15.36;100.00;101688.66;5056204;28;20216;-77
2022/10/19 10:33:25;;;;;;;611.83;579.17;;;15.10;99.90;;;15.37;100.00;101671.78;5060520;28;20190;-77
2022/10/19 10:36:31;;;;;;;613.50;581.08;;;15.20;99.90;;;15.49;100.00;101663.00;5057159;28;20206;-77
2022/10/19 10:39:19;;;;;;;617.80;584.15;;;;;;;15.40;100.00;101649.59;5054981;28;20225;-77
2022/10/19 10:42:15;;;;;;;618.90;585.75;;;15.20;99.90;;;15.56;100.00;101649.75;5069466;28;20209;-77
2022/10/19 10:45:25;;;;;;;624.40;591.10;;;15.30;99.90;;;15.43;100.00;101633.63;5056586;28;20646;-77
2022/10/19 10:48:43;;;;;;;618.78;585.67;;;15.30;99.90;;;15.43;100.00;101626.53;5055425;28;20602;-77
2022/10/19 10:51:44;;;;;;;612.90;578.88;;;14.10;99.90;;;15.45;100.00;101621.22;5041696;28;20198;-77
2022/10/19 10:54:39;;;;;;;605.42;574.63;;;15.30;99.90;;;15.38;100.00;101612.28;5056599;28;20197;-78
2022/10/19 10:57:37;;;;;;;617.92;584.28;;;15.30;99.90;;;15.43;100.00;101606.97;5070309;28;20213;-77
2022/10/19 11:00:27;;;;;;;602.47;571.75;;;15.30;99.90;;;15.52;100.00;101607.94;5041231;28;20207;-77
2022/10/19 11:03:24;;;;;;;620.13;588.38;;;15.40;99.90;;;15.49;100.00;101594.59;5055079;28;20601;-77
2022/10/19 11:06:15;;;;;;;630.42;596.92;;;15.40;99.90;;;15.42;100.00;101594.53;5056118;28;20198;-77
2022/10/19 11:09:30;;;;;;;612.10;580.22;;;15.30;99.90;;;15.44;100.00;101587.44;5070606;28;20226;-77
2022/10/19 11:12:35;;;;;;;636.75;602.42;;;15.40;99.90;;;15.48;100.00;101584.81;5069815;28;20198;-77
2022/10/19 11:16:11;;;;;;;637.05;602.65;;;15.50;99.90;;;15.66;100.00;101584.09;5041989;28;20202;-77
2022/10/19 11:19:17;;;;;;;656.97;621.58;;;15.50;99.90;;;15.52;100.00;101562.63;5042887;28;20240;-77
2022/10/19 11:22:25;;;;;;;653.63;618.92;;;15.40;99.90;;;15.53;100.00;101563.50;5054996;28;20216;-78
2022/10/19 11:25:53;;;;;;;653.60;618.97;;;15.40;99.90;;;15.72;100.00;101568.13;5070932;28;20190;-77
2022/10/19 11:28:50;;;;;;;665.50;629.95;;;15.60;99.90;;;15.67;100.00;101549.44;5058497;28;20221;-77
2022/10/19 11:31:54;;;;;;;649.67;615.53;;;15.60;99.90;;;16.00;100.00;101564.72;5060534;28;20202;-77
2022/10/19 11:35:12;;;;;;;653.97;619.58;;;15.80;99.90;;;16.07;100.00;101557.66;5059030;28;20716;-77
2022/10/19 11:38:37;;;;;;;641.78;608.42;;;15.80;99.90;;;16.19;100.00;101535.44;5039140;28;20234;-77
2022/10/19 11:41:42;;;;;;;639.67;607.05;;;16.00;99.90;;;16.26;100.00;101532.81;5053216;28;20207;-77